sensor_id;sensor_type;location;lat;lon;timestamp;pressure;altitude;pressure_sealevel;temperature;humidity
3812;BME280;1921;49.368;11.068;2023-03-24T00:00:13;96868.38;;;14.38;69.32
3812;BME280;1921;49.368;11.068;2023-03-24T00:02:41;96839.03;;;14.11;69.68
3812;BME280;1921;49.368;11.068;2023-03-24T00:05:21;96879.09;;;14.37;70.15
3812;BME280;1921;49.368;11.068;2023-03-24T00:07:47;96867.28;;;14.27;69.96
3812;BME280;1921;49.368;11.068;2023-03-24T00:10:17;96833.06;;;14.04;70.39
3812;BME280;1921;49.368;11.068;2023-03-24T00:12:45;96839.91;;;14.05;70.35
3812;BME280;1921;49.368;11.068;2023-03-24T00:15:16;96843.81;;;13.96;70.63
3812;BME280;1921;49.368;11.068;2023-03-24T00:17:47;96845.22;;;13.98;70.98
3812;BME280;1921;49.368;11.068;2023-03-24T00:20:15;96817.41;;;13.79;71.08
3812;BME280;1921;49.368;11.068;2023-03-24T00:22:45;96806.09;;;13.79;71.27
3812;BME280;1921;49.368;11.068;2023-03-24T00:25:14;96813.69;;;13.87;70.52
3812;BME280;1921;49.368;11.068;2023-03-24T00:27:40;96882.75;;;14.36;70.62
3812;BME280;1921;49.368;11.068;2023-03-24T00:30:08;96854.09;;;14.16;70.71
3812;BME280;1921;49.368;11.068;2023-03-24T00:32:36;96839.19;;;14.16;70.39
3812;BME280;1921;49.368;11.068;2023-03-24T00:35:08;96839.19;;;14.16;69.76
3812;BME280;1921;49.368;11.068;2023-03-24T00:37:35;96809.03;;;14.07;69.86
3812;BME280;1921;49.368;11.068;2023-03-24T00:40:04;96844.28;;;14.30;69.77
3812;BME280;1921;49.368;11.068;2023-03-24T00:42:34;96832.31;;;14.15;69.53
3812;BME280;1921;49.368;11.068;2023-03-24T00:45:05;96877.69;;;14.34;69.36
3812;BME280;1921;49.368;11.068;2023-03-24T00:47:33;96849.53;;;14.11;71.62
3812;BME280;1921;49.368;11.068;2023-03-24T00:50:15;96888.78;;;14.18;73.47
3812;BME280;1921;49.368;11.068;2023-03-24T00:52:41;96826.63;;;13.82;76.05
3812;BME280;1921;49.368;11.068;2023-03-24T00:55:11;96864.84;;;13.89;77.24
3812;BME280;1921;49.368;11.068;2023-03-24T00:57:43;96849.91;;;13.71;78.67
3812;BME280;1921;49.368;11.068;2023-03-24T01:00:21;96774.69;;;13.04;80.00
3812;BME280;1921;49.368;11.068;2023-03-24T01:02:51;96736.00;;;12.56;81.03
3812;BME280;1921;49.368;11.068;2023-03-24T01:05:28;96785.94;;;12.79;81.85
3812;BME280;1921;49.368;11.068;2023-03-24T01:07:59;96832.13;;;12.99;82.99
3812;BME280;1921;49.368;11.068;2023-03-24T01:10:31;96815.94;;;12.77;84.48
3812;BME280;1921;49.368;11.068;2023-03-24T01:12:59;96865.88;;;13.07;85.15
3812;BME280;1921;49.368;11.068;2023-03-24T01:15:31;96808.75;;;12.65;85.87
3812;BME280;1921;49.368;11.068;2023-03-24T01:17:58;96733.78;;;12.15;85.75
3812;BME280;1921;49.368;11.068;2023-03-24T01:20:27;96790.56;;;12.46;85.83
3812;BME280;1921;49.368;11.068;2023-03-24T01:22:59;96803.38;;;12.54;85.91
3812;BME280;1921;49.368;11.068;2023-03-24T01:25:25;96728.63;;;12.01;85.15
3812;BME280;1921;49.368;11.068;2023-03-24T01:27:52;96749.75;;;12.00;85.79
3812;BME280;1921;49.368;11.068;2023-03-24T01:30:22;96870.00;;;12.89;84.95
3812;BME280;1921;49.368;11.068;2023-03-24T01:32:48;96823.28;;;12.61;84.94
3812;BME280;1921;49.368;11.068;2023-03-24T01:35:15;96872.66;;;12.83;84.97
3812;BME280;1921;49.368;11.068;2023-03-24T01:37:40;96857.00;;;12.76;84.67
3812;BME280;1921;49.368;11.068;2023-03-24T01:40:09;96848.00;;;12.65;85.07
3812;BME280;1921;49.368;11.068;2023-03-24T01:42:37;96818.72;;;12.50;84.65
3812;BME280;1921;49.368;11.068;2023-03-24T01:48:23;96831.06;;;12.75;84.57
3812;BME280;1921;49.368;11.068;2023-03-24T01:53:27;96847.44;;;12.95;84.37
3812;BME280;1921;49.368;11.068;2023-03-24T01:55:54;96783.91;;;12.81;84.73
3812;BME280;1921;49.368;11.068;2023-03-24T01:58:22;96792.25;;;12.97;85.35
3812;BME280;1921;49.368;11.068;2023-03-24T02:00:49;96774.03;;;12.83;85.96
3812;BME280;1921;49.368;11.068;2023-03-24T02:03:19;96815.75;;;13.03;87.04
3812;BME280;1921;49.368;11.068;2023-03-24T02:05:48;96806.59;;;12.94;87.71
3812;BME280;1921;49.368;11.068;2023-03-24T02:08:51;96809.38;;;12.99;88.20
3812;BME280;1921;49.368;11.068;2023-03-24T02:11:18;96757.28;;;12.59;88.10
3812;BME280;1921;49.368;11.068;2023-03-24T02:13:44;96813.00;;;12.98;88.43
3812;BME280;1921;49.368;11.068;2023-03-24T02:16:48;96808.56;;;12.99;87.92
3812;BME280;1921;49.368;11.068;2023-03-24T02:19:35;96801.13;;;12.96;87.92
3812;BME280;1921;49.368;11.068;2023-03-24T02:25:30;96783.47;;;12.84;89.29
3812;BME280;1921;49.368;11.068;2023-03-24T02:31:18;96769.25;;;13.05;88.30
3812;BME280;1921;49.368;11.068;2023-03-24T02:42:25;96765.31;;;13.21;87.16
3812;BME280;1921;49.368;11.068;2023-03-24T02:50:35;96746.19;;;13.20;87.45
3812;BME280;1921;49.368;11.068;2023-03-24T02:53:22;96725.13;;;13.09;87.50
3812;BME280;1921;49.368;11.068;2023-03-24T02:58:48;96702.06;;;12.99;87.07
3812;BME280;1921;49.368;11.068;2023-03-24T03:01:31;96672.38;;;12.87;86.60
3812;BME280;1921;49.368;11.068;2023-03-24T03:04:21;96653.84;;;12.88;85.85
3812;BME280;1921;49.368;11.068;2023-03-24T03:06:53;96729.50;;;13.40;85.80
3812;BME280;1921;49.368;11.068;2023-03-24T03:09:21;96677.25;;;13.02;85.05
3812;BME280;1921;49.368;11.068;2023-03-24T03:11:52;96665.19;;;13.01;85.62
3812;BME280;1921;49.368;11.068;2023-03-24T03:14:31;96692.03;;;13.14;85.46
3812;BME280;1921;49.368;11.068;2023-03-24T03:17:14;96724.31;;;13.33;86.08
3812;BME280;1921;49.368;11.068;2023-03-24T03:19:48;96527.81;;;12.05;85.97
3812;BME280;1921;49.368;11.068;2023-03-24T03:22:22;96719.53;;;13.30;86.24
3812;BME280;1921;49.368;11.068;2023-03-24T03:24:52;96689.56;;;13.01;86.15
3812;BME280;1921;49.368;11.068;2023-03-24T03:27:28;96646.22;;;12.87;86.20
3812;BME280;1921;49.368;11.068;2023-03-24T03:30:07;96732.81;;;13.29;86.80
3812;BME280;1921;49.368;11.068;2023-03-24T03:32:43;96677.91;;;12.97;87.01
3812;BME280;1921;49.368;11.068;2023-03-24T03:35:32;96650.69;;;12.80;86.95
3812;BME280;1921;49.368;11.068;2023-03-24T03:41:15;96694.63;;;13.21;87.45
3812;BME280;1921;49.368;11.068;2023-03-24T03:43:44;96671.97;;;13.08;87.57
3812;BME280;1921;49.368;11.068;2023-03-24T03:46:12;96705.09;;;13.21;87.43
3812;BME280;1921;49.368;11.068;2023-03-24T03:48:39;96577.22;;;12.38;87.93
3812;BME280;1921;49.368;11.068;2023-03-24T03:51:05;96719.78;;;13.22;88.71
3812;BME280;1921;49.368;11.068;2023-03-24T03:53:51;96668.03;;;12.99;87.94
3812;BME280;1921;49.368;11.068;2023-03-24T03:56:22;96663.00;;;12.98;87.95
3812;BME280;1921;49.368;11.068;2023-03-24T03:58:48;96665.84;;;12.96;87.63
3812;BME280;1921;49.368;11.068;2023-03-24T04:01:26;96627.63;;;12.70;87.89
3812;BME280;1921;49.368;11.068;2023-03-24T04:12:45;96701.28;;;13.24;87.80
3812;BME280;1921;49.368;11.068;2023-03-24T04:15:44;96669.56;;;13.07;87.13
3812;BME280;1921;49.368;11.068;2023-03-24T04:18:49;96703.44;;;13.27;86.94
3812;BME280;1921;49.368;11.068;2023-03-24T04:21:47;96521.13;;;12.09;87.04
3812;BME280;1921;49.368;11.068;2023-03-24T04:24:39;96628.94;;;12.79;87.01
3812;BME280;1921;49.368;11.068;2023-03-24T04:32:47;96688.47;;;13.34;85.47
3812;BME280;1921;49.368;11.068;2023-03-24T04:35:33;96618.44;;;12.86;85.11
3812;BME280;1921;49.368;11.068;2023-03-24T04:38:04;96685.84;;;13.34;84.90
3812;BME280;1921;49.368;11.068;2023-03-24T04:40:35;96665.91;;;13.33;83.73
3812;BME280;1921;49.368;11.068;2023-03-24T04:43:11;96682.19;;;13.35;83.25
3812;BME280;1921;49.368;11.068;2023-03-24T04:45:38;96649.31;;;13.20;82.24
3812;BME280;1921;49.368;11.068;2023-03-24T04:48:08;96692.13;;;13.51;81.99
3812;BME280;1921;49.368;11.068;2023-03-24T04:50:38;96686.22;;;13.56;81.70
3812;BME280;1921;49.368;11.068;2023-03-24T04:53:06;96679.09;;;13.44;81.49
3812;BME280;1921;49.368;11.068;2023-03-24T04:59:01;96679.75;;;13.58;80.89
3812;BME280;1921;49.368;11.068;2023-03-24T05:01:27;96665.50;;;13.54;80.08
3812;BME280;1921;49.368;11.068;2023-03-24T05:03:58;96622.56;;;13.37;79.39
3812;BME280;1921;49.368;11.068;2023-03-24T05:06:24;96661.84;;;13.73;79.18
3812;BME280;1921;49.368;11.068;2023-03-24T05:08:51;96630.63;;;13.54;78.40
3812;BME280;1921;49.368;11.068;2023-03-24T05:11:18;96619.41;;;13.46;78.30
3812;BME280;1921;49.368;11.068;2023-03-24T05:13:45;96636.44;;;13.74;77.18
3812;BME280;1921;49.368;11.068;2023-03-24T05:16:12;96615.91;;;13.71;77.03
3812;BME280;1921;49.368;11.068;2023-03-24T05:18:39;96620.56;;;13.69;76.51
3812;BME280;1921;49.368;11.068;2023-03-24T05:21:05;96614.75;;;13.67;76.25
3812;BME280;1921;49.368;11.068;2023-03-24T05:23:31;96656.13;;;13.95;76.26
3812;BME280;1921;49.368;11.068;2023-03-24T05:25:57;96623.63;;;13.66;76.22
3812;BME280;1921;49.368;11.068;2023-03-24T05:28:22;96651.63;;;13.84;76.09
3812;BME280;1921;49.368;11.068;2023-03-24T05:30:48;96625.44;;;13.65;76.05
3812;BME280;1921;49.368;11.068;2023-03-24T05:33:14;96641.41;;;13.94;75.30
3812;BME280;1921;49.368;11.068;2023-03-24T05:35:40;96642.56;;;13.98;75.11
3812;BME280;1921;49.368;11.068;2023-03-24T05:38:06;96625.69;;;13.94;74.79
3812;BME280;1921;49.368;11.068;2023-03-24T05:40:31;96664.78;;;14.25;73.76
3812;BME280;1921;49.368;11.068;2023-03-24T05:42:57;96638.19;;;14.10;73.40
3812;BME280;1921;49.368;11.068;2023-03-24T05:45:23;96631.31;;;14.09;73.12
3812;BME280;1921;49.368;11.068;2023-03-24T05:47:49;96650.50;;;14.21;72.85
3812;BME280;1921;49.368;11.068;2023-03-24T05:50:16;96656.56;;;14.34;72.30
3812;BME280;1921;49.368;11.068;2023-03-24T05:52:42;96672.50;;;14.50;71.82
3812;BME280;1921;49.368;11.068;2023-03-24T05:55:08;96645.19;;;14.40;71.31
3812;BME280;1921;49.368;11.068;2023-03-24T05:57:34;96656.22;;;14.48;70.28
3812;BME280;1921;49.368;11.068;2023-03-24T06:00:03;96655.75;;;14.51;71.16
3812;BME280;1921;49.368;11.068;2023-03-24T06:02:32;96656.59;;;14.45;71.58
3812;BME280;1921;49.368;11.068;2023-03-24T06:04:58;96701.31;;;14.69;72.35
3812;BME280;1921;49.368;11.068;2023-03-24T06:07:26;96680.94;;;14.52;72.02
3812;BME280;1921;49.368;11.068;2023-03-24T06:09:58;96621.88;;;14.20;72.97
3812;BME280;1921;49.368;11.068;2023-03-24T06:12:28;96665.28;;;14.46;71.49
3812;BME280;1921;49.368;11.068;2023-03-24T06:14:56;96666.81;;;14.53;71.07
3812;BME280;1921;49.368;11.068;2023-03-24T06:17:22;96619.19;;;14.38;71.49
3812;BME280;1921;49.368;11.068;2023-03-24T06:19:50;96635.53;;;14.52;72.21
3812;BME280;1921;49.368;11.068;2023-03-24T06:22:16;96661.25;;;14.73;71.67
3812;BME280;1921;49.368;11.068;2023-03-24T06:24:42;96643.94;;;14.72;71.91
3812;BME280;1921;49.368;11.068;2023-03-24T06:27:10;96635.56;;;14.75;71.61
3812;BME280;1921;49.368;11.068;2023-03-24T06:29:36;96627.47;;;14.77;70.72
3812;BME280;1921;49.368;11.068;2023-03-24T06:32:01;96605.66;;;14.65;70.89
3812;BME280;1921;49.368;11.068;2023-03-24T06:34:28;96672.13;;;15.00;71.39
3812;BME280;1921;49.368;11.068;2023-03-24T06:36:54;96626.44;;;14.78;70.81
3812;BME280;1921;49.368;11.068;2023-03-24T06:39:20;96636.50;;;14.69;71.80
3812;BME280;1921;49.368;11.068;2023-03-24T06:41:46;96693.00;;;15.07;71.70
3812;BME280;1921;49.368;11.068;2023-03-24T06:44:12;96637.53;;;14.68;71.63
3812;BME280;1921;49.368;11.068;2023-03-24T06:46:39;96652.13;;;14.76;71.80
3812;BME280;1921;49.368;11.068;2023-03-24T06:49:05;96653.03;;;14.70;71.59
3812;BME280;1921;49.368;11.068;2023-03-24T06:51:31;96686.59;;;14.79;70.99
3812;BME280;1921;49.368;11.068;2023-03-24T06:53:56;96663.63;;;14.63;72.16
3812;BME280;1921;49.368;11.068;2023-03-24T06:56:22;96662.16;;;14.67;72.29
3812;BME280;1921;49.368;11.068;2023-03-24T06:58:48;96680.22;;;14.87;72.34
3812;BME280;1921;49.368;11.068;2023-03-24T07:01:14;96697.44;;;14.95;72.61
3812;BME280;1921;49.368;11.068;2023-03-24T07:03:40;96724.75;;;15.17;71.61
3812;BME280;1921;49.368;11.068;2023-03-24T07:06:09;96703.16;;;15.15;70.05
3812;BME280;1921;49.368;11.068;2023-03-24T07:08:36;96790.69;;;15.63;70.75
3812;BME280;1921;49.368;11.068;2023-03-24T07:11:02;96740.53;;;15.41;70.45
3812;BME280;1921;49.368;11.068;2023-03-24T07:13:28;96749.31;;;15.46;70.86
3812;BME280;1921;49.368;11.068;2023-03-24T07:15:54;96765.81;;;15.65;71.13
3812;BME280;1921;49.368;11.068;2023-03-24T07:18:20;96795.47;;;15.77;70.43
3812;BME280;1921;49.368;11.068;2023-03-24T07:20:46;96734.34;;;15.12;72.10
3812;BME280;1921;49.368;11.068;2023-03-24T07:23:12;96809.97;;;15.45;72.83
3812;BME280;1921;49.368;11.068;2023-03-24T07:25:41;96765.88;;;15.35;70.30
3812;BME280;1921;49.368;11.068;2023-03-24T07:28:07;96766.44;;;15.25;70.70
3812;BME280;1921;49.368;11.068;2023-03-24T07:30:34;96755.81;;;15.32;69.73
3812;BME280;1921;49.368;11.068;2023-03-24T07:33:03;96791.84;;;15.67;69.03
3812;BME280;1921;49.368;11.068;2023-03-24T07:35:30;96742.22;;;15.12;69.89
3812;BME280;1921;49.368;11.068;2023-03-24T07:38:00;96779.47;;;15.44;70.47
3812;BME280;1921;49.368;11.068;2023-03-24T07:40:26;96781.53;;;15.53;69.37
3812;BME280;1921;49.368;11.068;2023-03-24T07:42:52;96764.25;;;15.34;69.45
3812;BME280;1921;49.368;11.068;2023-03-24T07:45:18;96781.66;;;15.47;70.05
3812;BME280;1921;49.368;11.068;2023-03-24T07:47:45;96763.94;;;15.54;68.79
3812;BME280;1921;49.368;11.068;2023-03-24T07:50:13;96797.97;;;15.96;69.10
3812;BME280;1921;49.368;11.068;2023-03-24T07:52:40;96771.78;;;16.01;67.95
3812;BME280;1921;49.368;11.068;2023-03-24T07:55:09;96752.47;;;15.95;66.84
3812;BME280;1921;49.368;11.068;2023-03-24T07:57:40;96765.94;;;16.10;66.05
3812;BME280;1921;49.368;11.068;2023-03-24T08:00:09;96734.16;;;16.00;66.35
3812;BME280;1921;49.368;11.068;2023-03-24T08:02:41;96717.16;;;16.03;65.97
3812;BME280;1921;49.368;11.068;2023-03-24T08:05:10;96776.72;;;16.37;65.97
3812;BME280;1921;49.368;11.068;2023-03-24T08:07:43;96775.09;;;16.48;65.33
3812;BME280;1921;49.368;11.068;2023-03-24T08:10:11;96788.66;;;16.57;65.40
3812;BME280;1921;49.368;11.068;2023-03-24T08:12:38;96759.28;;;16.48;65.00
3812;BME280;1921;49.368;11.068;2023-03-24T08:15:06;96756.97;;;16.52;65.27
3812;BME280;1921;49.368;11.068;2023-03-24T08:17:34;96742.28;;;16.39;65.77
3812;BME280;1921;49.368;11.068;2023-03-24T08:20:00;96722.91;;;16.45;65.09
3812;BME280;1921;49.368;11.068;2023-03-24T08:22:29;96746.44;;;16.52;64.93
3812;BME280;1921;49.368;11.068;2023-03-24T08:24:55;96712.91;;;16.30;66.00
3812;BME280;1921;49.368;11.068;2023-03-24T08:27:20;96749.06;;;16.52;66.37
3812;BME280;1921;49.368;11.068;2023-03-24T08:29:46;96763.13;;;16.57;65.39
3812;BME280;1921;49.368;11.068;2023-03-24T08:32:12;96782.69;;;16.61;65.36
3812;BME280;1921;49.368;11.068;2023-03-24T08:34:38;96808.53;;;16.64;65.88
3812;BME280;1921;49.368;11.068;2023-03-24T08:37:03;96755.00;;;16.30;66.56
3812;BME280;1921;49.368;11.068;2023-03-24T08:39:29;96768.31;;;16.24;66.32
3812;BME280;1921;49.368;11.068;2023-03-24T08:41:56;96758.88;;;15.99;67.18
3812;BME280;1921;49.368;11.068;2023-03-24T08:44:22;96762.88;;;16.02;67.66
3812;BME280;1921;49.368;11.068;2023-03-24T08:46:48;96802.97;;;16.21;67.87
3812;BME280;1921;49.368;11.068;2023-03-24T08:49:14;96773.09;;;15.86;69.16
3812;BME280;1921;49.368;11.068;2023-03-24T08:51:41;96807.69;;;16.07;70.49
3812;BME280;1921;49.368;11.068;2023-03-24T08:54:07;96761.91;;;15.79;70.47
3812;BME280;1921;49.368;11.068;2023-03-24T08:56:33;96774.69;;;15.76;71.38
3812;BME280;1921;49.368;11.068;2023-03-24T08:58:59;96758.22;;;15.33;74.29
3812;BME280;1921;49.368;11.068;2023-03-24T09:01:25;96783.91;;;15.31;76.58
3812;BME280;1921;49.368;11.068;2023-03-24T09:03:51;96779.78;;;15.12;78.20
3812;BME280;1921;49.368;11.068;2023-03-24T09:06:17;96805.00;;;15.01;79.29
3812;BME280;1921;49.368;11.068;2023-03-24T09:08:43;96812.22;;;15.06;81.14
3812;BME280;1921;49.368;11.068;2023-03-24T09:11:15;96812.94;;;14.83;82.12
3812;BME280;1921;49.368;11.068;2023-03-24T09:13:41;96804.41;;;14.39;84.67
3812;BME280;1921;49.368;11.068;2023-03-24T09:16:07;96831.91;;;14.55;87.48
3812;BME280;1921;49.368;11.068;2023-03-24T09:18:33;96774.13;;;14.25;87.78
3812;BME280;1921;49.368;11.068;2023-03-24T09:20:59;96802.31;;;14.30;88.73
3812;BME280;1921;49.368;11.068;2023-03-24T09:23:27;96807.34;;;14.13;89.54
3812;BME280;1921;49.368;11.068;2023-03-24T09:25:53;96813.09;;;14.03;90.96
3812;BME280;1921;49.368;11.068;2023-03-24T09:28:21;96828.31;;;14.13;92.51
3812;BME280;1921;49.368;11.068;2023-03-24T09:30:47;96834.06;;;14.03;93.78
3812;BME280;1921;49.368;11.068;2023-03-24T09:33:13;96756.00;;;13.50;94.59
3812;BME280;1921;49.368;11.068;2023-03-24T09:35:40;96751.41;;;13.45;95.12
3812;BME280;1921;49.368;11.068;2023-03-24T09:38:06;96784.69;;;13.63;97.19
3812;BME280;1921;49.368;11.068;2023-03-24T09:40:37;96739.25;;;13.51;98.47
3812;BME280;1921;49.368;11.068;2023-03-24T09:43:30;96754.78;;;13.71;98.65
3812;BME280;1921;49.368;11.068;2023-03-24T09:46:00;96719.97;;;13.45;98.63
3812;BME280;1921;49.368;11.068;2023-03-24T09:48:43;96807.50;;;13.99;99.12
3812;BME280;1921;49.368;11.068;2023-03-24T09:51:31;96801.81;;;13.84;99.73
3812;BME280;1921;49.368;11.068;2023-03-24T09:56:40;96779.59;;;14.05;99.38
3812;BME280;1921;49.368;11.068;2023-03-24T09:59:28;96772.16;;;14.20;97.52
3812;BME280;1921;49.368;11.068;2023-03-24T10:01:57;96767.25;;;14.42;97.58
3812;BME280;1921;49.368;11.068;2023-03-24T10:04:25;96763.81;;;14.72;96.71
3812;BME280;1921;49.368;11.068;2023-03-24T10:07:06;96812.69;;;15.26;96.77
3812;BME280;1921;49.368;11.068;2023-03-24T10:09:35;96786.00;;;15.41;90.69
3812;BME280;1921;49.368;11.068;2023-03-24T10:12:45;96785.00;;;15.66;90.88
3812;BME280;1921;49.368;11.068;2023-03-24T10:15:38;96785.88;;;15.71;88.72
3812;BME280;1921;49.368;11.068;2023-03-24T10:24:14;96829.31;;;16.49;86.05
3812;BME280;1921;49.368;11.068;2023-03-24T10:26:52;96844.44;;;16.42;82.56
3812;BME280;1921;49.368;11.068;2023-03-24T10:29:27;96817.78;;;16.38;82.60
3812;BME280;1921;49.368;11.068;2023-03-24T10:32:20;96786.72;;;16.24;81.90
3812;BME280;1921;49.368;11.068;2023-03-24T10:34:54;96793.44;;;16.31;81.80
3812;BME280;1921;49.368;11.068;2023-03-24T10:37:21;96766.25;;;16.14;81.84
3812;BME280;1921;49.368;11.068;2023-03-24T10:39:47;96758.47;;;16.19;78.05
3812;BME280;1921;49.368;11.068;2023-03-24T10:42:20;96772.28;;;15.98;80.26
3812;BME280;1921;49.368;11.068;2023-03-24T10:44:50;96810.63;;;16.22;80.13
3812;BME280;1921;49.368;11.068;2023-03-24T10:47:23;96820.28;;;16.45;80.12
3812;BME280;1921;49.368;11.068;2023-03-24T10:50:01;96807.84;;;16.40;79.42
3812;BME280;1921;49.368;11.068;2023-03-24T10:52:45;96783.44;;;16.45;78.59
3812;BME280;1921;49.368;11.068;2023-03-24T10:55:16;96813.59;;;16.66;76.50
3812;BME280;1921;49.368;11.068;2023-03-24T10:57:45;96772.59;;;16.41;77.67
3812;BME280;1921;49.368;11.068;2023-03-24T11:00:28;96790.78;;;16.43;78.24
3812;BME280;1921;49.368;11.068;2023-03-24T11:03:06;96772.94;;;16.33;77.96
3812;BME280;1921;49.368;11.068;2023-03-24T11:05:37;96820.28;;;16.45;77.69
3812;BME280;1921;49.368;11.068;2023-03-24T11:08:26;96808.00;;;16.22;77.70
3812;BME280;1921;49.368;11.068;2023-03-24T11:10:54;96784.50;;;16.32;78.09
3812;BME280;1921;49.368;11.068;2023-03-24T11:13:30;96832.31;;;16.53;79.09
3812;BME280;1921;49.368;11.068;2023-03-24T11:16:10;96834.31;;;16.62;79.23
3812;BME280;1921;49.368;11.068;2023-03-24T11:19:21;96835.84;;;16.58;77.82
3812;BME280;1921;49.368;11.068;2023-03-24T11:21:50;96839.69;;;16.67;78.78
3812;BME280;1921;49.368;11.068;2023-03-24T11:24:19;96811.16;;;16.64;78.42
3812;BME280;1921;49.368;11.068;2023-03-24T11:27:09;96827.66;;;17.00;77.54
3812;BME280;1921;49.368;11.068;2023-03-24T11:29:39;96767.44;;;16.63;76.81
3812;BME280;1921;49.368;11.068;2023-03-24T11:32:17;96761.97;;;16.65;77.41
3812;BME280;1921;49.368;11.068;2023-03-24T11:34:47;96752.75;;;16.51;76.75
3812;BME280;1921;49.368;11.068;2023-03-24T11:37:21;96757.91;;;16.46;77.68
3812;BME280;1921;49.368;11.068;2023-03-24T11:43:00;96741.44;;;16.50;77.80
3812;BME280;1921;49.368;11.068;2023-03-24T11:45:36;96810.88;;;17.06;76.41
3812;BME280;1921;49.368;11.068;2023-03-24T11:48:23;96795.72;;;16.97;75.81
3812;BME280;1921;49.368;11.068;2023-03-24T11:50:52;96814.59;;;17.22;75.66
3812;BME280;1921;49.368;11.068;2023-03-24T11:53:44;96747.19;;;17.26;74.98
3812;BME280;1921;49.368;11.068;2023-03-24T11:56:54;96768.50;;;18.19;70.98
3812;BME280;1921;49.368;11.068;2023-03-24T11:59:36;96741.94;;;18.52;69.51
3812;BME280;1921;49.368;11.068;2023-03-24T12:04:52;96693.06;;;19.09;66.14
3812;BME280;1921;49.368;11.068;2023-03-24T12:07:45;96751.88;;;19.63;62.33
3812;BME280;1921;49.368;11.068;2023-03-24T12:13:40;96743.50;;;18.75;63.95
3812;BME280;1921;49.368;11.068;2023-03-24T12:19:37;96751.44;;;17.83;66.98
3812;BME280;1921;49.368;11.068;2023-03-24T12:22:36;96689.00;;;17.11;68.18
3812;BME280;1921;49.368;11.068;2023-03-24T12:25:55;96756.38;;;17.23;70.67
3812;BME280;1921;49.368;11.068;2023-03-24T12:34:45;96730.19;;;17.17;71.90
3812;BME280;1921;49.368;11.068;2023-03-24T12:42:45;96672.78;;;17.80;68.34
3812;BME280;1921;49.368;11.068;2023-03-24T12:45:35;96708.66;;;18.51;65.49
3812;BME280;1921;49.368;11.068;2023-03-24T12:51:15;96684.69;;;18.85;63.80
3812;BME280;1921;49.368;11.068;2023-03-24T12:56:56;96697.78;;;20.02;55.80
3812;BME280;1921;49.368;11.068;2023-03-24T12:59:40;96668.03;;;19.69;56.00
3812;BME280;1921;49.368;11.068;2023-03-24T13:02:38;96705.44;;;19.88;54.59
3812;BME280;1921;49.368;11.068;2023-03-24T13:05:14;96636.19;;;19.06;55.03
3812;BME280;1921;49.368;11.068;2023-03-24T13:07:41;96475.72;;;18.07;55.17
3812;BME280;1921;49.368;11.068;2023-03-24T13:10:32;96456.41;;;17.96;55.24
3812;BME280;1921;49.368;11.068;2023-03-24T13:13:23;96687.13;;;19.34;54.31
3812;BME280;1921;49.368;11.068;2023-03-24T13:15:59;96670.50;;;19.39;54.82
3812;BME280;1921;49.368;11.068;2023-03-24T13:18:38;96677.91;;;19.89;53.56
3812;BME280;1921;49.368;11.068;2023-03-24T13:21:20;96701.31;;;20.33;51.96
3812;BME280;1921;49.368;11.068;2023-03-24T13:24:04;96692.94;;;20.56;51.05
3812;BME280;1921;49.368;11.068;2023-03-24T13:27:18;96653.66;;;20.38;48.92
3812;BME280;1921;49.368;11.068;2023-03-24T13:32:33;96652.00;;;19.39;50.82
3812;BME280;1921;49.368;11.068;2023-03-24T13:38:37;96641.88;;;19.30;51.53
3812;BME280;1921;49.368;11.068;2023-03-24T13:41:20;96665.38;;;19.64;51.12
3812;BME280;1921;49.368;11.068;2023-03-24T13:44:26;96672.75;;;19.15;51.22
3812;BME280;1921;49.368;11.068;2023-03-24T13:47:12;96698.94;;;19.21;51.14
3812;BME280;1921;49.368;11.068;2023-03-24T13:49:44;96648.00;;;18.62;52.12
3812;BME280;1921;49.368;11.068;2023-03-24T13:52:31;96696.00;;;18.53;52.52
3812;BME280;1921;49.368;11.068;2023-03-24T13:54:59;96670.16;;;18.28;52.04
3812;BME280;1921;49.368;11.068;2023-03-24T13:57:27;96696.09;;;18.10;53.49
3812;BME280;1921;49.368;11.068;2023-03-24T14:00:00;96594.94;;;17.11;59.54
3812;BME280;1921;49.368;11.068;2023-03-24T14:06:01;96731.19;;;17.33;67.23
3812;BME280;1921;49.368;11.068;2023-03-24T14:16:43;96753.47;;;16.75;73.94
3812;BME280;1921;49.368;11.068;2023-03-24T14:22:38;96537.59;;;15.22;75.31
3812;BME280;1921;49.368;11.068;2023-03-24T14:27:48;96744.50;;;16.30;72.75
3812;BME280;1921;49.368;11.068;2023-03-24T14:32:51;96637.22;;;15.52;72.19
3812;BME280;1921;49.368;11.068;2023-03-24T14:35:38;96702.16;;;16.03;73.01
3812;BME280;1921;49.368;11.068;2023-03-24T14:38:20;96778.72;;;16.19;76.07
3812;BME280;1921;49.368;11.068;2023-03-24T14:40:55;96726.00;;;15.38;78.78
3812;BME280;1921;49.368;11.068;2023-03-24T14:49:22;96803.13;;;15.44;75.00
3812;BME280;1921;49.368;11.068;2023-03-24T14:52:26;96712.06;;;14.91;70.77
3812;BME280;1921;49.368;11.068;2023-03-24T14:55:08;96805.03;;;15.25;68.04
3812;BME280;1921;49.368;11.068;2023-03-24T14:57:53;96780.47;;;15.07;66.54
3812;BME280;1921;49.368;11.068;2023-03-24T15:00:34;96817.22;;;15.07;66.93
3812;BME280;1921;49.368;11.068;2023-03-24T15:04:04;96827.34;;;14.92;67.80
3812;BME280;1921;49.368;11.068;2023-03-24T15:06:31;96832.44;;;14.75;75.11
3812;BME280;1921;49.368;11.068;2023-03-24T15:08:59;96769.47;;;13.90;77.40
3812;BME280;1921;49.368;11.068;2023-03-24T15:11:34;96809.72;;;13.78;80.69
3812;BME280;1921;49.368;11.068;2023-03-24T15:14:08;96837.44;;;13.49;81.79
3812;BME280;1921;49.368;11.068;2023-03-24T15:16:37;96767.31;;;12.94;83.13
3812;BME280;1921;49.368;11.068;2023-03-24T15:19:20;96821.84;;;12.97;83.84
3812;BME280;1921;49.368;11.068;2023-03-24T15:22:00;96791.25;;;12.66;83.43
3812;BME280;1921;49.368;11.068;2023-03-24T15:24:35;96791.81;;;12.36;81.81
3812;BME280;1921;49.368;11.068;2023-03-24T15:29:40;96653.97;;;11.67;81.41
3812;BME280;1921;49.368;11.068;2023-03-24T15:32:16;96765.59;;;12.50;81.05
3812;BME280;1921;49.368;11.068;2023-03-24T15:34:54;96756.22;;;12.74;77.76
3812;BME280;1921;49.368;11.068;2023-03-24T15:37:30;96810.22;;;13.25;75.42
3812;BME280;1921;49.368;11.068;2023-03-24T15:39:57;96815.97;;;13.33;75.39
3812;BME280;1921;49.368;11.068;2023-03-24T15:42:24;96779.88;;;13.10;73.69
3812;BME280;1921;49.368;11.068;2023-03-24T15:44:52;96818.44;;;13.28;72.98